Eftichia — C6ZI4 — position and weather

sailwx.info

Track history (hours):
 
Tides and Currents Weather Stations Pressure Air Temp Water Temp Dewpoint Dewpoint Depression Visibility Wind Speed Wind Dir Waves Ship Positions

Eftichia

Last reported at 2017-Apr-26 12:13 UTC. Time now 2017-Apr-27 03:20 UTC.
Position N 46°35' E 031°01'.

Length 181 m; draft 6.1 m.

Type: Cargo ship. MMSI: 311033882.

Date/timePositionNaut miles runAvg speedWind from/ knotsBaromVisibWave heightAir tempDewpointWater temp
2017-Apr-26 12:13N 46°35' E 031°01'3 7.7
2017-Apr-26 11:48N 46°32' E 030°58'1 2.9
2017-Apr-26 11:30N 46°32' E 030°58'2 4.0
2017-Apr-26 11:00N 46°30' E 030°57'4 7.9
2017-Apr-26 10:30N 46°26' E 030°57'611.6
2017-Apr-26 09:59N 46°20' E 030°57'33113.5
2017-Apr-25 09:25N 40°60' E 028°60'4 8.4
2017-Apr-25 09:00N 40°56' E 028°58'4 7.3
2017-Apr-25 08:24N 40°52' E 028°55'3 8.0
2017-Apr-25 08:00N 40°49' E 028°56'1 1.5
2017-Apr-25 07:30N 40°49' E 028°56'0 0.7
2017-Apr-25 07:00N 40°49' E 028°57'0 0.8
2017-Apr-25 06:30N 40°49' E 028°57'0 0.8
2017-Apr-25 06:00N 40°48' E 028°58'1 2.1
2017-Apr-25 05:30N 40°48' E 028°56'0 0.6
2017-Apr-25 04:58N 40°48' E 028°57'0 0.4
2017-Apr-25 04:30N 40°48' E 028°57'0 0.4
2017-Apr-25 04:00N 40°48' E 028°57'0 0.3
2017-Apr-25 03:30N 40°48' E 028°57'0 0.5
2017-Apr-25 02:57N 40°48' E 028°57'0 0.4
2017-Apr-25 02:30N 40°48' E 028°57'0 0.4
2017-Apr-25 01:59N 40°48' E 028°58'0 0.4
2017-Apr-25 01:30N 40°48' E 028°58'0 0.6
2017-Apr-25 00:59N 40°48' E 028°58'0 0.5
2017-Apr-25 00:29N 40°48' E 028°57'0 0.2
2017-Apr-24 23:59N 40°48' E 028°58'1 1.1
2017-Apr-24 23:30N 40°48' E 028°58'1 1.1
2017-Apr-24 23:00N 40°49' E 028°58'2 3.3
2017-Apr-24 22:25N 40°50' E 028°56'4 8.9
2017-Apr-24 22:00N 40°49' E 028°51'510.5
2017-Apr-24 21:30N 40°48' E 028°44'4 8.1
2017-Apr-24 20:59N 40°48' E 028°39'711.3
2017-Apr-24 20:24N 40°48' E 028°30'23310.7
2017-Apr-23 22:44N 38°12' E 024°47'1313.2
2017-Apr-23 21:44N 38°01' E 024°39'313.2
2017-Apr-23 21:29N 37°58' E 024°38'613.1
2017-Apr-23 21:00N 37°53' E 024°32'713.2
2017-Apr-23 20:30N 37°48' E 024°27'713.1
2017-Apr-23 20:00N 37°44' E 024°20'713.4
2017-Apr-23 19:30N 37°40' E 024°13'913.8
2017-Apr-23 18:51N 37°32' E 024°07'514.0
2017-Apr-23 18:30N 37°28' E 024°04'713.9
2017-Apr-23 18:00N 37°22' E 023°59'713.9
2017-Apr-23 17:30N 37°16' E 023°54'713.9
2017-Apr-23 17:00N 37°11' E 023°50'714.2
2017-Apr-23 16:30N 37°05' E 023°45'713.9
2017-Apr-23 16:00N 36°58' E 023°41'714.1
2017-Apr-23 15:30N 36°53' E 023°36'2114.3
2017-Apr-23 14:03N 36°35' E 023°23'65413.3
2017-Apr-21 12:55N 44°14' E 013°11'1314.1
2017-Apr-21 12:00N 44°23' E 012°57'  
2017-Apr-19 04:06N 44°28' E 012°15'0 0.0
2017-Apr-19 03:56N 44°28' E 012°15'0 0.0
2017-Apr-19 03:26N 44°28' E 012°15'0 0.0
2017-Apr-19 03:00N 44°28' E 012°15'0 0.0
2017-Apr-19 02:24N 44°28' E 012°15'0 0.0
2017-Apr-18 02:18N 44°28' E 012°15'0 0.0
2017-Apr-18 01:02N 44°28' E 012°15'0 0.0
2017-Apr-18 00:44N 44°28' E 012°15'0 0.0
2017-Apr-18 00:24N 44°28' E 012°15'0 0.0
2017-Apr-17 23:57N 44°28' E 012°15'0 0.0
2017-Apr-17 23:30N 44°28' E 012°15'0 0.0
2017-Apr-17 22:57N 44°28' E 012°15'0 0.0
2017-Apr-17 22:24N 44°28' E 012°15'0 0.0
2017-Apr-17 21:45N 44°28' E 012°15'0 0.0
2017-Apr-17 21:24N 44°28' E 012°15'0 0.0
2017-Apr-17 19:54N 44°28' E 012°15'0 0.0
2017-Apr-16 15:15N 44°28' E 012°15'  
Track history (hours):
 
Tides and Currents Weather Stations Pressure Air Temp Water Temp Dewpoint Dewpoint Depression Visibility Wind Speed Wind Dir Waves Ship Positions

Eftichia

Last reported at 2017-Apr-26 12:13 UTC. Time now 2017-Apr-27 03:20 UTC.
Position N 46°35' E 031°01'.

Length 181 m; draft 6.1 m.

Type: Cargo ship. MMSI: 311033882.

Date/timePositionNaut miles runAvg speedWind from/ knotsBaromVisibWave heightAir tempDewpointWater temp
2017-Apr-26 12:13N 46°35' E 031°01'3 7.7
2017-Apr-26 11:48N 46°32' E 030°58'1 2.9
2017-Apr-26 11:30N 46°32' E 030°58'2 4.0
2017-Apr-26 11:00N 46°30' E 030°57'4 7.9
2017-Apr-26 10:30N 46°26' E 030°57'611.6
2017-Apr-26 09:59N 46°20' E 030°57'33113.5
2017-Apr-25 09:25N 40°60' E 028°60'4 8.4
2017-Apr-25 09:00N 40°56' E 028°58'4 7.3
2017-Apr-25 08:24N 40°52' E 028°55'3 8.0
2017-Apr-25 08:00N 40°49' E 028°56'1 1.5
2017-Apr-25 07:30N 40°49' E 028°56'0 0.7
2017-Apr-25 07:00N 40°49' E 028°57'0 0.8
2017-Apr-25 06:30N 40°49' E 028°57'0 0.8
2017-Apr-25 06:00N 40°48' E 028°58'1 2.1
2017-Apr-25 05:30N 40°48' E 028°56'0 0.6
2017-Apr-25 04:58N 40°48' E 028°57'0 0.4
2017-Apr-25 04:30N 40°48' E 028°57'0 0.4
2017-Apr-25 04:00N 40°48' E 028°57'0 0.3
2017-Apr-25 03:30N 40°48' E 028°57'0 0.5
2017-Apr-25 02:57N 40°48' E 028°57'0 0.4
2017-Apr-25 02:30N 40°48' E 028°57'0 0.4
2017-Apr-25 01:59N 40°48' E 028°58'0 0.4
2017-Apr-25 01:30N 40°48' E 028°58'0 0.6
2017-Apr-25 00:59N 40°48' E 028°58'0 0.5
2017-Apr-25 00:29N 40°48' E 028°57'0 0.2
2017-Apr-24 23:59N 40°48' E 028°58'1 1.1
2017-Apr-24 23:30N 40°48' E 028°58'1 1.1
2017-Apr-24 23:00N 40°49' E 028°58'2 3.3
2017-Apr-24 22:25N 40°50' E 028°56'4 8.9
2017-Apr-24 22:00N 40°49' E 028°51'510.5
2017-Apr-24 21:30N 40°48' E 028°44'4 8.1
2017-Apr-24 20:59N 40°48' E 028°39'711.3
2017-Apr-24 20:24N 40°48' E 028°30'23310.7
2017-Apr-23 22:44N 38°12' E 024°47'1313.2
2017-Apr-23 21:44N 38°01' E 024°39'313.2
2017-Apr-23 21:29N 37°58' E 024°38'613.1
2017-Apr-23 21:00N 37°53' E 024°32'713.2
2017-Apr-23 20:30N 37°48' E 024°27'713.1
2017-Apr-23 20:00N 37°44' E 024°20'713.4
2017-Apr-23 19:30N 37°40' E 024°13'913.8
2017-Apr-23 18:51N 37°32' E 024°07'514.0
2017-Apr-23 18:30N 37°28' E 024°04'713.9
2017-Apr-23 18:00N 37°22' E 023°59'713.9
2017-Apr-23 17:30N 37°16' E 023°54'713.9
2017-Apr-23 17:00N 37°11' E 023°50'714.2
2017-Apr-23 16:30N 37°05' E 023°45'713.9
2017-Apr-23 16:00N 36°58' E 023°41'714.1
2017-Apr-23 15:30N 36°53' E 023°36'2114.3
2017-Apr-23 14:03N 36°35' E 023°23'65413.3
2017-Apr-21 12:55N 44°14' E 013°11'1314.1
2017-Apr-21 12:00N 44°23' E 012°57'  
2017-Apr-19 04:06N 44°28' E 012°15'0 0.0
2017-Apr-19 03:56N 44°28' E 012°15'0 0.0
2017-Apr-19 03:26N 44°28' E 012°15'0 0.0
2017-Apr-19 03:00N 44°28' E 012°15'0 0.0
2017-Apr-19 02:24N 44°28' E 012°15'0 0.0
2017-Apr-18 02:18N 44°28' E 012°15'0 0.0
2017-Apr-18 01:02N 44°28' E 012°15'0 0.0
2017-Apr-18 00:44N 44°28' E 012°15'0 0.0
2017-Apr-18 00:24N 44°28' E 012°15'0 0.0
2017-Apr-17 23:57N 44°28' E 012°15'0 0.0
2017-Apr-17 23:30N 44°28' E 012°15'0 0.0
2017-Apr-17 22:57N 44°28' E 012°15'0 0.0
2017-Apr-17 22:24N 44°28' E 012°15'0 0.0
2017-Apr-17 21:45N 44°28' E 012°15'0 0.0
2017-Apr-17 21:24N 44°28' E 012°15'0 0.0
2017-Apr-17 19:54N 44°28' E 012°15'0 0.0
2017-Apr-16 15:15N 44°28' E 012°15'  

Dump ship's entire track history